Terminal Aerodrome Forecast
Issued by NWS

Home | Current Version | Previous Version | Text Only | Print | Product List | Glossary On
Versions: 1 2 3 4 5 6 7 8 9 10 11 12 13 14 15 16 17 18 19 20 21 22
000
FTUS43 KPAH 051128
TAFCGI
TAF
KCGI 051128Z 0512/0612 00000KT 1/4SM FG VV003
      TEMPO 0512/0513 2SM BR SCT003
     FM051300 00000KT 6SM HZ SCT025
     FM051600 16004KT P6SM SCT040
     FM060800 17002KT 4SM BR SCT050=

USA.gov is the U.S. government's official web portal to all federal, state and local government web resources and services.